Time;durP1;ratioP1;P1;durP2;ratioP2;P2;SDS_P1;SDS_P2;PMS_P1;PMS_P2;Temp;Humidity;BMP_temperature;BMP_pressure;BME280_temperature;BME280_humidity;BME280_pressure;Samples;Min_cycle;Max_cycle;Signal;HPM_P1;HPM_P2
2023/10/05 00:00:46;;;;;;;12.25;4.07;;;;;;;11.83;100.00;100746.59;12191340;19;20668;-81
2023/10/05 00:04:50;;;;;;;12.02;4.07;;;;;;;11.81;100.00;100754.28;12185680;19;19995;-80
2023/10/05 00:09:04;;;;;;;9.10;4.22;;;;;;;11.77;100.00;100758.59;12210715;19;20006;-82
2023/10/05 00:13:13;;;;;;;7.97;3.90;;;;;;;11.75;100.00;100758.84;12179878;19;20023;-80
2023/10/05 00:17:19;;;;;;;10.02;5.22;;;;;;;11.71;100.00;100749.31;12204741;19;20457;-80
2023/10/05 00:21:21;;;;;;;11.90;3.97;;;;;;;11.70;100.00;100746.81;12190195;19;20245;-81
2023/10/05 00:25:24;;;;;;;10.50;4.40;;;;;;;11.67;100.00;100742.59;12171089;19;20014;-80
2023/10/05 00:29:39;;;;;;;14.40;4.65;;;;;;;11.66;100.00;100729.88;12209158;19;20078;-81
2023/10/05 00:33:41;;;;;;;12.45;5.05;;;;;;;11.59;100.00;100729.09;12184627;19;20014;-81
2023/10/05 00:37:44;;;;;;;12.05;4.47;;;;;;;11.54;100.00;100734.47;12201558;19;20002;-80
2023/10/05 00:46:11;;;;;;;13.63;5.13;;;;;;;11.43;100.00;100718.75;12220060;19;20036;-80
2023/10/05 00:50:14;;;;;;;14.97;4.60;;;;;;;11.41;100.00;100711.50;12230957;19;20014;-81
2023/10/05 00:54:19;;;;;;;16.77;5.40;;;;;;;11.41;100.00;100717.03;12222755;19;20026;-81
2023/10/05 00:58:22;;;;;;;14.07;4.82;;;;;;;11.39;100.00;100712.81;12191071;19;20094;-80
2023/10/05 01:02:25;;;;;;;14.25;5.18;;;;;;;11.37;100.00;100704.78;12206080;19;20010;-80
2023/10/05 01:06:37;;;;;;;12.73;4.68;;;;;;;11.36;100.00;100710.53;12209896;19;20023;-81
2023/10/05 01:10:48;;;;;;;18.05;6.63;;;;;;;11.34;100.00;100713.53;12184186;19;20022;-81
2023/10/05 01:14:53;;;;;;;11.07;4.85;;;;;;;11.36;100.00;100719.66;12207454;19;20036;-80
2023/10/05 01:18:55;;;;;;;12.10;5.15;;;;;;;11.36;100.00;100702.25;12187847;19;20013;-81
2023/10/05 01:23:01;;;;;;;19.50;5.93;;;;;;;11.41;100.00;100705.16;12208310;19;20034;-80
2023/10/05 01:27:04;;;;;;;12.15;5.65;;;;;;;11.42;100.00;100693.03;12209816;19;20029;-80
2023/10/05 01:31:09;;;;;;;18.02;6.00;;;;;;;11.43;100.00;100703.00;12181973;19;20018;-80
2023/10/05 01:35:13;;;;;;;11.57;5.30;;;;;;;11.44;100.00;100714.88;12210315;19;20018;-80
2023/10/05 01:39:18;;;;;;;15.90;6.07;;;;;;;11.44;100.00;100703.84;12201494;19;20026;-80
2023/10/05 01:43:22;;;;;;;15.68;5.95;;;;;;;11.45;100.00;100695.34;12189330;19;20011;-81
2023/10/05 01:47:26;;;;;;;16.45;5.85;;;;;;;11.49;100.00;100701.25;12203555;19;20022;-80
2023/10/05 01:51:28;;;;;;;14.15;5.70;;;;;;;11.50;100.00;100701.00;12201937;19;20007;-81
2023/10/05 01:55:34;;;;;;;15.90;6.00;;;;;;;11.55;100.00;100698.38;12185139;19;21114;-80
2023/10/05 01:59:40;;;;;;;14.27;5.88;;;;;;;11.59;100.00;100707.88;12203544;19;20274;-80
2023/10/05 02:03:41;;;;;;;19.60;5.97;;;;;;;11.62;100.00;100701.03;12183369;19;20002;-81
2023/10/05 02:07:44;;;;;;;11.27;5.17;;;;;;;11.65;100.00;100695.03;12202136;19;20253;-81
2023/10/05 02:11:47;;;;;;;13.27;5.40;;;;;;;11.67;100.00;100695.66;12199806;19;20697;-81
2023/10/05 02:15:52;;;;;;;13.35;5.75;;;;;;;11.67;100.00;100678.25;12183015;19;20021;-80
2023/10/05 02:19:56;;;;;;;17.02;5.80;;;;;;;11.67;100.00;100681.84;12206040;19;20091;-81
2023/10/05 02:24:04;;;;;;;14.52;5.93;;;;;;;11.65;100.00;100681.25;12205322;19;20057;-81
2023/10/05 02:28:08;;;;;;;12.40;6.03;;;;;;;11.63;100.00;100680.66;12186623;19;20010;-81
2023/10/05 02:32:11;;;;;;;11.95;5.25;;;;;;;11.62;100.00;100690.00;12207970;19;20094;-81
2023/10/05 02:36:20;;;;;;;13.27;4.88;;;;;;;11.62;100.00;100687.22;12207369;19;20011;-81
2023/10/05 02:40:27;;;;;;;15.98;6.18;;;;;;;11.60;100.00;100686.63;12191229;19;20042;-81
2023/10/05 02:44:30;;;;;;;15.57;5.32;;;;;;;11.59;100.00;100680.25;12216294;19;20562;-81
2023/10/05 02:48:33;;;;;;;;;;;;;;;11.57;100.00;100679.66;12204113;19;20082;-80
2023/10/05 02:52:36;;;;;;;13.30;5.53;;;;;;;11.57;100.00;100693.47;12206955;19;19899;-80
2023/10/05 02:56:40;;;;;;;11.48;4.50;;;;;;;11.56;100.00;100690.94;12223935;19;20013;-80
2023/10/05 03:00:44;;;;;;;14.38;5.53;;;;;;;11.54;100.00;100677.38;12178168;19;20011;-81
2023/10/05 03:05:07;;;;;;;14.10;5.13;;;;;;;11.52;100.00;100685.03;12204202;19;20432;-81
2023/10/05 03:09:09;;;;;;;12.80;5.20;;;;;;;11.50;100.00;100681.66;12195908;19;20010;-80
2023/10/05 03:13:13;;;;;;;12.65;6.82;;;;;;;11.47;100.00;100692.34;12168137;19;20315;-80
2023/10/05 03:17:19;;;;;;;14.18;5.45;;;;;;;11.44;100.00;100688.13;12194817;19;20003;-80
2023/10/05 03:21:22;;;;;;;18.02;5.57;;;;;;;11.44;100.00;100696.41;12202840;19;20015;-80
2023/10/05 03:25:25;;;;;;;14.55;6.03;;;;;;;11.43;100.00;100700.25;12182973;19;20010;-80
2023/10/05 03:29:28;;;;;;;14.93;5.68;;;;;;;11.44;100.00;100698.34;12196841;19;21019;-80
2023/10/05 03:33:33;;;;;;;13.43;5.38;;;;;;;11.44;100.00;100695.56;12200201;19;20015;-80
2023/10/05 03:37:39;;;;;;;13.27;5.32;;;;;;;11.44;100.00;100698.34;12177217;19;20003;-80
2023/10/05 03:41:41;;;;;;;16.02;4.90;;;;;;;11.44;100.00;100704.69;12196500;19;20015;-80
2023/10/05 03:45:45;;;;;;;14.00;5.63;;;;;;;11.45;100.00;100717.44;12177847;19;20011;-80
2023/10/05 03:49:55;;;;;;;13.65;5.43;;;;;;;11.43;100.00;100715.97;12195622;19;20009;-81
2023/10/05 03:53:58;;;;;;;16.13;5.88;;;;;;;11.43;100.00;100718.75;12196988;19;20426;-81
2023/10/05 03:58:00;;;;;;;10.73;5.35;;;;;;;11.39;100.00;100715.56;12174277;19;20839;-80
2023/10/05 04:02:06;;;;;;;12.65;5.60;;;;;;;11.36;100.00;100713.28;12199769;19;20051;-81
2023/10/05 04:06:20;;;;;;;14.93;5.55;;;;;;;11.31;100.00;100708.47;12205293;19;20007;-81
2023/10/05 04:10:43;;;;;;;15.32;5.88;;;;;;;11.27;100.00;100700.88;12172816;19;20010;-80
2023/10/05 04:14:47;;;;;;;14.77;5.82;;;;;;;11.23;100.00;100697.75;12194223;19;20628;-80
2023/10/05 04:18:50;;;;;;;11.57;5.18;;;;;;;11.22;100.00;100700.75;12175111;19;20018;-81
2023/10/05 04:22:51;;;;;;;13.88;5.72;;;;;;;11.22;100.00;100706.28;12199651;19;20003;-80
2023/10/05 04:26:53;;;;;;;13.52;5.38;;;;;;;11.22;100.00;100701.59;12199356;19;20010;-80
2023/10/05 04:30:57;;;;;;;12.07;4.85;;;;;;;11.24;100.00;100693.06;12172014;19;20018;-80
2023/10/05 04:35:01;;;;;;;14.70;5.65;;;;;;;11.25;100.00;100698.38;12198741;19;20484;-81
2023/10/05 04:39:04;;;;;;;11.80;5.82;;;;;;;11.27;100.00;100687.09;12197468;19;20011;-81
2023/10/05 04:43:11;;;;;;;10.48;4.78;;;;;;;11.28;100.00;100689.63;12171063;19;20027;-81
2023/10/05 04:47:13;;;;;;;13.98;5.53;;;;;;;11.29;100.00;100685.78;12196845;19;20376;-81
2023/10/05 04:51:20;;;;;;;9.88;4.70;;;;;;;11.34;100.00;100688.69;12193722;19;20043;-80
2023/10/05 04:55:31;;;;;;;12.65;5.55;;;;;;;11.36;100.00;100691.22;12177081;19;20003;-81
2023/10/05 04:59:37;;;;;;;11.17;4.57;;;;;;;11.38;100.00;100689.06;12194825;19;20018;-81
2023/10/05 05:03:55;;;;;;;12.00;4.32;;;;;;;11.38;100.00;100689.91;12179402;19;20379;-80
2023/10/05 05:07:58;;;;;;;12.20;4.60;;;;;;;11.40;100.00;100687.75;12199943;19;20038;-81
2023/10/05 05:12:05;;;;;;;12.40;3.78;;;;;;;11.38;100.00;100673.34;12197762;19;20026;-81
2023/10/05 05:16:07;;;;;;;14.15;6.55;;;;;;;11.39;100.00;100675.06;12175683;19;20010;-81
2023/10/05 05:20:14;;;;;;;;;;;;;;;11.40;100.00;100670.38;12199208;19;20102;-80
2023/10/05 05:24:17;;;;;;;10.80;4.85;;;;;;;11.43;100.00;100669.06;12203986;19;19923;-81
2023/10/05 05:28:19;;;;;;;;;;;;;;;11.41;100.00;100677.56;12189229;19;20030;-82
2023/10/05 05:32:22;;;;;;;13.02;5.22;;;;;;;11.39;100.00;100679.69;12210731;19;20362;-81
2023/10/05 05:36:25;;;;;;;14.38;5.10;;;;;;;11.39;100.00;100690.75;12211455;19;20028;-82
2023/10/05 05:40:29;;;;;;;10.35;4.47;;;;;;;11.40;100.00;100689.69;12187464;19;20009;-81
2023/10/05 05:44:30;;;;;;;14.00;5.35;;;;;;;11.44;100.00;100698.34;12216391;19;20108;-81
2023/10/05 05:48:32;;;;;;;10.95;5.18;;;;;;;11.47;100.00;100715.25;12214231;19;20009;-82
2023/10/05 05:52:35;;;;;;;14.07;4.95;;;;;;;11.51;100.00;100722.00;12192369;19;20007;-81
2023/10/05 05:56:36;;;;;;;9.25;4.90;;;;;;;11.55;100.00;100714.09;12218631;19;20036;-81
2023/10/05 06:00:38;;;;;;;12.35;4.85;;;;;;;11.62;100.00;100718.44;12205591;19;20036;-81
2023/10/05 06:04:41;;;;;;;12.23;4.90;;;;;;;11.72;100.00;100728.94;12217379;19;20008;-81
2023/10/05 06:08:44;;;;;;;12.75;4.75;;;;;;;11.78;100.00;100747.31;12212085;19;20010;-81
2023/10/05 06:12:50;;;;;;;9.38;4.45;;;;;;;11.85;100.00;100734.28;12196137;19;20058;-81
2023/10/05 06:16:53;;;;;;;9.73;4.68;;;;;;;11.91;100.00;100748.22;12215739;19;20006;-82
2023/10/05 06:20:54;;;;;;;12.20;4.57;;;;;;;11.98;100.00;100729.63;12259005;19;20429;-81
2023/10/05 06:24:58;;;;;;;13.02;4.90;;;;;;;12.08;100.00;100736.25;12208953;19;20457;-81
2023/10/05 06:29:00;;;;;;;9.52;4.32;;;;;;;12.15;100.00;100727.03;12215927;19;20029;-82
2023/10/05 06:33:02;;;;;;;10.82;4.35;;;;;;;12.19;100.00;100734.56;12210847;19;20542;-81
2023/10/05 06:37:04;;;;;;;13.20;6.60;;;;;;;12.20;100.00;100728.00;12188329;19;20126;-81
2023/10/05 06:41:06;;;;;;;11.27;4.93;;;;;;;12.27;100.00;100739.75;12208454;19;20002;-82
2023/10/05 06:45:11;;;;;;;11.43;4.90;;;;;;;12.46;100.00;100739.66;12210485;19;20014;-81
2023/10/05 06:49:13;;;;;;;10.27;4.55;;;;;;;12.63;100.00;100729.56;12186510;19;20502;-81
2023/10/05 06:53:15;;;;;;;15.00;5.45;;;;;;;12.73;100.00;100732.56;12204348;19;20002;-82
2023/10/05 06:57:17;;;;;;;13.70;5.20;;;;;;;12.89;100.00;100727.38;12210919;19;20018;-81
2023/10/05 07:01:21;;;;;;;14.82;4.90;;;;;;;13.02;100.00;100727.09;12185654;19;20006;-81
2023/10/05 07:05:23;;;;;;;12.25;4.60;;;;;;;13.19;100.00;100733.56;12211031;19;20711;-81
2023/10/05 07:09:26;;;;;;;10.18;4.25;;;;;;;13.40;100.00;100736.78;12207394;19;20328;-82
2023/10/05 07:13:28;;;;;;;12.30;4.78;;;;;;;13.52;100.00;100736.75;12190037;19;20010;-82
2023/10/05 07:17:31;;;;;;;9.13;4.47;;;;;;;13.59;100.00;100738.28;12203771;19;20366;-81
2023/10/05 07:21:34;;;;;;;13.57;4.80;;;;;;;13.73;100.00;100751.81;12205560;19;20743;-81
2023/10/05 07:25:37;;;;;;;13.07;5.10;;;;;;;13.85;100.00;100756.22;12191155;19;20020;-81
2023/10/05 07:29:47;;;;;;;16.58;4.82;;;;;;;13.93;100.00;100771.59;12201846;19;20081;-82
2023/10/05 07:33:49;;;;;;;9.95;4.20;;;;;;;14.02;100.00;100774.81;12185382;19;20466;-80
2023/10/05 07:37:51;;;;;;;9.32;4.25;;;;;;;14.16;100.00;100778.09;12204622;19;20006;-80
2023/10/05 07:41:53;;;;;;;10.00;4.47;;;;;;;14.20;100.00;100777.34;12208605;19;20078;-80
2023/10/05 07:45:55;;;;;;;9.95;4.07;;;;;;;14.33;100.00;100776.19;12190797;19;20019;-80
2023/10/05 07:50:04;;;;;;;14.20;4.82;;;;;;;14.52;100.00;100777.66;12208954;19;20006;-80
2023/10/05 07:54:06;;;;;;;13.82;5.22;;;;;;;14.66;100.00;100783.69;12216224;19;19999;-80
2023/10/05 07:58:08;;;;;;;10.73;4.63;;;;;;;14.69;100.00;100782.34;12182132;19;20011;-81
2023/10/05 08:02:10;;;;;;;12.13;5.13;;;;;;;14.75;100.00;100773.00;12203687;19;20065;-80
2023/10/05 08:06:15;;;;;;;11.18;4.75;;;;;;;14.70;100.00;100775.72;12197655;19;20006;-81
2023/10/05 08:10:18;;;;;;;16.05;4.65;;;;;;;14.65;100.00;100778.41;12174019;19;20010;-78
2023/10/05 08:14:21;;;;;;;14.32;5.40;;;;;;;14.64;100.00;100773.97;12198649;19;20011;-79
2023/10/05 08:18:23;;;;;;;12.73;4.82;;;;;;;14.70;100.00;100773.78;12201632;19;20014;-79
2023/10/05 08:22:26;;;;;;;17.23;5.38;;;;;;;14.89;100.00;100766.00;12189834;19;20014;-79
2023/10/05 08:26:29;;;;;;;13.52;4.40;;;;;;;14.97;100.00;100773.91;12207436;19;20006;-78
2023/10/05 08:30:37;;;;;;;13.00;4.65;;;;;;;15.00;100.00;100775.34;12199797;19;20011;-79
2023/10/05 08:34:41;;;;;;;12.57;5.38;;;;;;;15.14;100.00;100778.56;12183726;19;20497;-79
2023/10/05 08:38:47;;;;;;;13.32;5.40;;;;;;;15.45;100.00;100793.72;12204082;19;20006;-78
2023/10/05 08:42:54;;;;;;;13.07;5.40;;;;;;;15.65;100.00;100788.41;12182766;19;20374;-78
2023/10/05 08:46:57;;;;;;;17.08;7.05;;;;;;;15.83;100.00;100790.03;12205551;19;20217;-79
2023/10/05 08:51:11;;;;;;;11.10;5.03;;;;;;;15.94;100.00;100794.59;12195556;19;20022;-78
2023/10/05 08:55:14;;;;;;;15.02;5.72;;;;;;;16.14;100.00;100802.28;12179049;19;20006;-78
2023/10/05 08:59:16;;;;;;;15.80;5.50;;;;;;;16.30;100.00;100810.78;12197358;19;20003;-79
2023/10/05 09:03:35;;;;;;;12.27;5.10;;;;;;;16.48;100.00;100804.84;12244342;19;20024;-78
2023/10/05 09:07:38;;;;;;;13.77;4.88;;;;;;;16.73;100.00;100801.44;12220215;19;20003;-79
2023/10/05 09:11:41;;;;;;;16.38;6.15;;;;;;;16.95;100.00;100798.53;12243419;19;20065;-79
2023/10/05 09:15:52;;;;;;;12.35;4.97;;;;;;;17.02;99.01;100809.47;12204676;19;20018;-79
2023/10/05 09:19:55;;;;;;;13.38;5.28;;;;;;;17.18;100.00;100811.22;12218945;19;20012;-78
2023/10/05 09:23:57;;;;;;;14.25;5.05;;;;;;;17.09;97.89;100810.88;12219258;19;20954;-79
2023/10/05 09:28:07;;;;;;;12.48;5.85;;;;;;;17.19;97.60;100804.56;12196433;19;20030;-79
2023/10/05 09:32:30;;;;;;;12.45;4.63;;;;;;;17.54;98.74;100806.66;12216677;19;20003;-79
2023/10/05 09:36:36;;;;;;;11.35;5.28;;;;;;;17.72;96.64;100799.78;12212832;19;20020;-79
2023/10/05 09:40:38;;;;;;;16.45;4.90;;;;;;;17.87;95.85;100810.16;12187042;19;20010;-79
2023/10/05 09:44:52;;;;;;;13.88;4.82;;;;;;;17.95;92.99;100806.00;12211582;19;20010;-79
2023/10/05 09:49:01;;;;;;;12.75;5.55;;;;;;;17.87;92.09;100829.69;12192669;19;20011;-78
2023/10/05 09:53:06;;;;;;;9.05;4.70;;;;;;;18.00;94.06;100811.63;12187173;19;20038;-78
2023/10/05 09:57:12;;;;;;;12.73;5.10;;;;;;;18.04;92.03;100825.84;12173002;19;20025;-79
2023/10/05 10:01:14;;;;;;;11.20;5.20;;;;;;;18.07;91.57;100822.50;12143169;19;20030;-78
2023/10/05 10:05:30;;;;;;;10.77;5.10;;;;;;;18.18;91.80;100822.25;12181169;19;20495;-79
2023/10/05 10:09:41;;;;;;;10.88;4.45;;;;;;;18.24;91.62;100814.72;12171843;19;20034;-78
2023/10/05 10:13:59;;;;;;;14.82;6.00;;;;;;;18.27;91.96;100808.59;12175151;19;20053;-80
2023/10/05 10:18:14;;;;;;;11.38;4.30;;;;;;;18.20;90.00;100811.66;12174348;19;20011;-78
2023/10/05 10:22:17;;;;;;;14.93;5.75;;;;;;;18.17;91.84;100812.22;12155655;19;20358;-78
2023/10/05 10:26:24;;;;;;;13.05;5.55;;;;;;;18.27;89.94;100816.13;12175568;19;20090;-78
2023/10/05 10:30:27;;;;;;;15.02;5.53;;;;;;;18.35;88.76;100821.16;12173395;19;20010;-78
2023/10/05 10:34:49;;;;;;;18.48;5.82;;;;;;;18.31;88.46;100820.03;12155045;19;20466;-78
2023/10/05 10:38:52;;;;;;;11.18;5.10;;;;;;;18.26;90.09;100820.03;12180004;19;20025;-78
2023/10/05 10:47:11;;;;;;;14.25;5.32;;;;;;;18.56;87.75;100817.28;12173423;19;21635;-78
2023/10/05 10:51:14;;;;;;;12.70;4.80;;;;;;;18.37;90.14;100813.34;12172525;19;20007;-79
2023/10/05 10:55:17;;;;;;;14.80;5.33;;;;;;;18.35;91.05;100816.44;12149938;19;20006;-78
2023/10/05 10:59:26;;;;;;;17.05;5.43;;;;;;;18.28;90.76;100827.00;12204108;19;20011;-79
2023/10/05 11:03:30;;;;;;;13.05;5.03;;;;;;;18.34;90.93;100825.06;12205974;19;20014;-78
2023/10/05 11:07:34;;;;;;;9.57;4.63;;;;;;;18.49;91.73;100819.50;12186105;19;20011;-78
2023/10/05 11:11:37;;;;;;;16.33;4.88;;;;;;;18.53;91.05;100826.22;12205236;19;20124;-79
2023/10/05 11:15:58;;;;;;;10.40;4.15;;;;;;;18.48;90.37;100814.22;12200243;19;20014;-79
2023/10/05 11:20:33;;;;;;;14.10;5.25;;;;;;;18.38;90.26;100813.09;12188584;19;51731;-79
2023/10/05 11:26:18;;;;;;;13.02;4.45;;;;;;;18.29;91.97;100820.28;12203406;19;20026;-81
2023/10/05 11:30:57;;;;;;;10.18;4.45;;;;;;;18.17;92.87;100819.72;12190431;19;20066;-79
2023/10/05 11:36:21;;;;;;;16.13;4.28;;;;;;;18.10;91.41;100800.47;12007395;19;2004370;-78
2023/10/05 11:56:10;;;;;;;8.05;3.45;;;;;;;17.87;95.25;100776.72;12177920;19;20037;-79
2023/10/05 12:00:20;;;;;;;9.43;3.97;;;;;;;17.79;95.44;100768.91;12197937;19;20017;-78
2023/10/05 12:04:41;;;;;;;16.60;4.28;;;;;;;17.64;96.89;100771.59;12171370;19;20010;-79
2023/10/05 12:08:53;;;;;;;9.05;3.90;;;;;;;17.53;97.18;100745.66;12202602;19;20070;-79
2023/10/05 12:13:01;;;;;;;14.73;4.63;;;;;;;17.38;99.33;100728.88;12187987;19;20023;-79
2023/10/05 12:17:05;;;;;;;12.65;4.53;;;;;;;17.33;99.00;100743.63;12202355;19;20392;-79
2023/10/05 12:21:09;;;;;;;11.05;3.78;;;;;;;17.39;99.12;100755.63;12189057;19;20018;-79
2023/10/05 12:25:16;;;;;;;9.77;4.20;;;;;;;17.42;98.66;100760.66;12178864;19;20098;-79
2023/10/05 12:29:18;;;;;;;10.15;4.50;;;;;;;17.46;98.21;100775.69;12202425;19;20367;-78
2023/10/05 12:33:20;;;;;;;12.70;4.78;;;;;;;17.47;97.67;100786.59;12200150;19;21124;-78
2023/10/05 12:37:26;;;;;;;13.40;3.70;;;;;;;17.49;96.88;100777.94;12189482;19;20014;-79
2023/10/05 12:41:36;;;;;;;12.68;4.40;;;;;;;17.66;97.17;100783.31;12194906;19;20006;-78
2023/10/05 12:45:43;;;;;;;8.25;3.38;;;;;;;17.87;97.15;100778.66;12191775;19;21437;-78
2023/10/05 12:49:50;;;;;;;11.05;3.45;;;;;;;17.99;95.75;100768.09;12212247;19;20054;-78
2023/10/05 12:54:29;;;;;;;9.70;3.45;;;;;;;18.03;96.19;100763.66;12209816;19;20015;-78
2023/10/05 12:58:37;;;;;;;9.18;3.35;;;;;;;18.04;95.62;100770.91;12187987;19;20006;-79
2023/10/05 13:02:56;;;;;;;9.80;3.22;;;;;;;18.04;93.83;100784.84;12210845;19;20114;-78
2023/10/05 13:07:04;;;;;;;7.90;2.90;;;;;;;18.06;93.09;100781.78;12189558;19;20034;-79
2023/10/05 13:11:24;;;;;;;14.45;3.47;;;;;;;18.17;91.53;100783.47;12207177;19;20011;-79
2023/10/05 13:15:32;;;;;;;12.63;3.05;;;;;;;18.22;90.83;100780.69;12208469;19;20595;-79
2023/10/05 13:19:42;;;;;;;7.13;2.38;;;;;;;18.21;89.67;100785.44;12187932;19;21434;-78
2023/10/05 14:01:10;;;;;;;7.85;2.38;;;;;;;18.43;85.10;100748.03;12186647;19;20090;-79
2023/10/05 14:05:51;;;;;;;7.50;1.85;;;;;;;18.61;84.06;100741.88;12206074;19;20426;-79
2023/10/05 14:09:56;;;;;;;5.82;2.10;;;;;;;18.75;84.52;100752.53;12209990;19;20347;-79
2023/10/05 14:13:57;;;;;;;5.75;2.15;;;;;;;18.69;83.70;100748.88;12206010;19;20014;-79
2023/10/05 14:18:16;;;;;;;5.67;2.27;;;;;;;18.66;80.59;100747.47;12209502;19;20011;-80
2023/10/05 14:22:18;;;;;;;8.88;2.30;;;;;;;18.81;82.92;100752.22;12182815;19;20018;-80
2023/10/05 14:26:30;;;;;;;6.20;2.30;;;;;;;18.76;82.98;100756.97;12211264;19;20019;-80
2023/10/05 14:30:53;;;;;;;12.80;3.17;;;;;;;18.65;81.98;100773.72;12191377;19;20018;-79
2023/10/05 14:35:04;;;;;;;10.93;2.40;;;;;;;18.58;81.11;100784.31;12203752;19;20003;-79
2023/10/05 14:39:21;;;;;;;5.55;2.10;;;;;;;18.50;82.17;100786.84;12200662;19;20017;-78
2023/10/05 14:48:04;;;;;;;8.70;2.28;;;;;;;18.52;82.06;100791.03;12208832;19;20401;-78
2023/10/05 14:52:17;;;;;;;7.13;2.08;;;;;;;18.58;81.33;100784.31;12198559;19;20057;-79
2023/10/05 14:56:40;;;;;;;5.47;2.00;;;;;;;18.89;80.64;100782.38;12102874;19;2004415;-79
2023/10/05 15:01:02;;;;;;;8.00;2.50;;;;;;;19.00;76.54;100785.97;12194938;19;20024;-80
2023/10/05 15:05:07;;;;;;;;;;;;;;;18.82;75.56;100778.19;12149918;19;20010;-79
2023/10/05 15:09:28;;;;;;;5.13;1.85;;;;;;;18.74;74.91;100793.56;12221066;19;19915;-79
2023/10/05 15:13:59;;;;;;;7.80;2.17;;;;;;;18.55;75.52;100792.41;12187531;19;20071;-79
2023/10/05 15:18:32;;;;;;;5.95;1.95;;;;;;;18.34;74.49;100784.03;12207626;19;20405;-78
2023/10/05 15:23:43;;;;;;;11.10;2.50;;;;;;;18.21;74.82;100774.28;12183625;19;20010;-79
2023/10/05 15:37:22;;;;;;;6.07;1.88;;;;;;;17.82;78.32;100767.50;12183923;19;20009;-79
2023/10/05 15:41:30;;;;;;;7.00;2.40;;;;;;;17.71;79.70;100767.44;12202598;19;20028;-79
2023/10/05 15:45:36;;;;;;;9.75;2.72;;;;;;;17.67;80.70;100763.53;12203848;19;20033;-79
2023/10/05 15:49:38;;;;;;;6.22;2.03;;;;;;;17.57;80.83;100760.69;12180156;19;20188;-79
2023/10/05 15:53:51;;;;;;;6.90;1.70;;;;;;;17.43;81.83;100763.19;12201822;19;20029;-79
2023/10/05 15:57:54;;;;;;;;;;;;;;;17.29;83.64;100767.56;12184110;19;20024;-79
2023/10/05 16:01:57;;;;;;;5.60;1.85;;;;;;;17.16;84.94;100762.47;12203909;19;19922;-78
2023/10/05 16:06:03;;;;;;;9.07;2.65;;;;;;;17.10;86.03;100767.16;12199322;19;20505;-79
2023/10/05 16:10:09;;;;;;;6.75;2.10;;;;;;;17.05;87.75;100770.78;12180575;19;20484;-78
2023/10/05 16:14:10;;;;;;;4.20;1.52;;;;;;;16.95;90.94;100756.78;12204758;19;20007;-78
2023/10/05 16:18:12;;;;;;;7.43;2.20;;;;;;;16.82;93.80;100760.88;12201555;19;20446;-79
2023/10/05 16:22:15;;;;;;;7.18;2.50;;;;;;;16.70;96.68;100762.16;12178088;19;20485;-79
2023/10/05 16:26:18;;;;;;;8.80;1.85;;;;;;;16.60;98.97;100768.50;12198205;19;20054;-79
2023/10/05 16:30:21;;;;;;;5.95;2.00;;;;;;;16.52;100.00;100766.22;12201977;19;20034;-78
2023/10/05 16:34:23;;;;;;;6.20;2.05;;;;;;;16.38;100.00;100766.63;12183168;19;20011;-78
2023/10/05 16:38:25;;;;;;;6.75;2.03;;;;;;;16.20;100.00;100777.31;12200059;19;20050;-78
2023/10/05 16:42:27;;;;;;;10.27;2.35;;;;;;;15.98;100.00;100781.03;12205176;19;20017;-78
2023/10/05 16:46:30;;;;;;;;;;;;;;;15.72;100.00;100775.16;12183820;19;20007;-79
2023/10/05 16:50:33;;;;;;;6.28;2.10;;;;;;;15.55;100.00;100776.31;12203042;19;19934;-79
2023/10/05 16:54:38;;;;;;;9.60;2.60;;;;;;;15.35;100.00;100783.31;12203769;19;20031;-78
2023/10/05 16:58:40;;;;;;;7.22;2.17;;;;;;;15.13;100.00;100786.06;12180565;19;20269;-79
2023/10/05 17:02:46;;;;;;;8.02;2.20;;;;;;;14.93;100.00;100789.41;12201873;19;20046;-79
2023/10/05 17:06:48;;;;;;;7.32;2.65;;;;;;;14.77;100.00;100801.34;12179963;19;20014;-79
2023/10/05 17:10:50;;;;;;;10.93;2.72;;;;;;;14.62;100.00;100795.56;12201985;19;20027;-79
2023/10/05 17:14:52;;;;;;;10.50;2.30;;;;;;;14.47;100.00;100796.94;12202241;19;20048;-80
2023/10/05 17:18:54;;;;;;;8.10;2.33;;;;;;;14.38;100.00;100811.50;12178956;19;20583;-79
2023/10/05 17:22:56;;;;;;;6.97;2.07;;;;;;;14.26;100.00;100814.34;12207697;19;20003;-78
2023/10/05 17:26:59;;;;;;;5.97;2.23;;;;;;;14.13;100.00;100804.41;12213244;19;19999;-79
2023/10/05 17:31:04;;;;;;;6.82;2.28;;;;;;;14.03;100.00;100812.50;12189788;19;20394;-79
2023/10/05 17:35:08;;;;;;;7.63;2.55;;;;;;;13.93;100.00;100807.63;12222037;19;20002;-79
2023/10/05 17:39:09;;;;;;;12.05;3.58;;;;;;;13.87;100.00;100805.84;12244737;19;20003;-78
2023/10/05 17:43:11;;;;;;;5.63;2.42;;;;;;;13.77;100.00;100803.72;12224790;19;20017;-79
2023/10/05 17:47:13;;;;;;;8.13;2.80;;;;;;;13.70;100.00;100807.72;12237442;19;20010;-80
2023/10/05 17:51:15;;;;;;;6.95;2.45;;;;;;;13.64;100.00;100795.69;12215030;19;20006;-79
2023/10/05 17:55:18;;;;;;;;;;;;;;;13.55;100.00;100803.53;12195193;19;20037;-79
2023/10/05 17:59:20;;;;;;;5.57;2.08;;;;;;;13.47;100.00;100803.09;12212353;19;19919;-79
2023/10/05 18:03:22;;;;;;;11.85;2.55;;;;;;;13.43;100.00;100806.34;12203801;19;20759;-79
2023/10/05 18:07:24;;;;;;;10.15;2.33;;;;;;;13.38;100.00;100802.63;12182957;19;20003;-79
2023/10/05 18:11:26;;;;;;;8.05;2.63;;;;;;;13.33;100.00;100802.53;12212198;19;20089;-81
2023/10/05 18:15:28;;;;;;;10.03;2.83;;;;;;;13.27;100.00;100807.13;12212772;19;20035;-81
2023/10/05 18:19:30;;;;;;;9.27;2.67;;;;;;;13.21;100.00;100806.13;12190715;19;20002;-81
2023/10/05 18:23:33;;;;;;;7.50;2.67;;;;;;;13.18;100.00;100803.84;12211109;19;20068;-78
2023/10/05 18:27:35;;;;;;;;;;;;;;;13.15;100.00;100803.50;12231379;19;20009;-79
2023/10/05 18:31:37;;;;;;;8.18;2.33;;;;;;;13.12;100.00;100809.53;12228653;19;19999;-79
2023/10/05 18:35:38;;;;;;;7.53;2.60;;;;;;;13.08;100.00;100819.38;12253516;19;20007;-79
2023/10/05 18:39:40;;;;;;;8.65;2.75;;;;;;;13.03;100.00;100816.47;12232627;19;19999;-79
2023/10/05 18:43:43;;;;;;;;;;;;;;;13.01;100.00;100819.50;12255863;19;20014;-78
2023/10/05 18:47:45;;;;;;;6.70;2.35;;;;;;;12.98;100.00;100811.69;12252237;19;19914;-80
2023/10/05 18:51:47;;;;;;;9.27;3.47;;;;;;;12.95;100.00;100814.94;12227938;19;20010;-79
2023/10/05 18:55:49;;;;;;;7.75;2.30;;;;;;;12.95;100.00;100820.47;12242685;19;20010;-79
2023/10/05 18:59:54;;;;;;;8.10;2.50;;;;;;;12.95;100.00;100834.31;12218062;19;20007;-79
2023/10/05 19:03:58;;;;;;;12.98;2.42;;;;;;;12.95;100.00;100826.00;12198123;19;20002;-79
2023/10/05 19:08:01;;;;;;;6.10;2.10;;;;;;;12.91;100.00;100822.88;12218002;19;20413;-79
2023/10/05 19:12:03;;;;;;;5.20;3.03;;;;;;;12.90;100.00;100826.72;12219437;19;20021;-79
2023/10/05 19:16:04;;;;;;;8.88;2.20;;;;;;;12.88;100.00;100817.84;12192727;19;20872;-79
2023/10/05 19:20:08;;;;;;;;;;;;;;;12.88;100.00;100822.50;12216600;19;20054;-79
2023/10/05 19:24:10;;;;;;;10.05;3.53;;;;;;;12.90;100.00;100828.63;12213248;19;19946;-80
2023/10/05 19:28:12;;;;;;;7.20;2.10;;;;;;;12.89;100.00;100825.03;12185234;19;20005;-79
2023/10/05 19:32:14;;;;;;;4.57;1.90;;;;;;;12.89;100.00;100832.50;12209682;19;20002;-80
2023/10/05 19:36:16;;;;;;;11.00;3.30;;;;;;;12.90;100.00;100828.63;12210472;19;20014;-79
2023/10/05 19:40:18;;;;;;;12.38;2.47;;;;;;;12.89;100.00;100833.34;12187854;19;20003;-78
2023/10/05 19:44:20;;;;;;;7.75;2.10;;;;;;;12.91;100.00;100835.84;12208867;19;20014;-79
2023/10/05 19:48:22;;;;;;;8.65;2.65;;;;;;;12.96;100.00;100833.22;12207611;19;20030;-79
2023/10/05 19:52:24;;;;;;;9.15;2.45;;;;;;;12.99;100.00;100830.78;12186330;19;20017;-79
2023/10/05 19:56:29;;;;;;;6.68;2.67;;;;;;;13.02;100.00;100836.94;12206038;19;20094;-78